Time;durP1;ratioP1;P1;durP2;ratioP2;P2;SDS_P1;SDS_P2;PMS_P1;PMS_P2;Temp;Humidity;BMP_temperature;BMP_pressure;BME280_temperature;BME280_humidity;BME280_pressure;Samples;Min_cycle;Max_cycle;Signal;HPM_P1;HPM_P2
2022/08/25 00:00:59;;;;;;;20.80;11.90;;;;;;;32.10;100.00;100597.59;110218;1255;23042;-81
2022/08/25 00:03:35;;;;;;;23.70;13.50;;;;;;;32.04;100.00;100601.55;110224;1256;22012;-81
2022/08/25 00:06:17;;;;;;;30.60;14.30;;;;;;;31.96;100.00;100604.05;110225;1256;21972;-80
2022/08/25 00:09:04;;;;;;;24.50;12.50;;;;;;;31.97;100.00;100605.67;110225;1256;23066;-81
2022/08/25 00:11:54;;;;;;;23.30;14.00;;;;;;;31.98;100.00;100604.77;110250;1257;21972;-81
2022/08/25 00:14:47;;;;;;;20.60;14.20;;;;;;;31.91;100.00;100606.18;110340;1256;22193;-80
2022/08/25 00:17:35;;;;;;;23.70;12.90;;;;;;;31.88;100.00;100610.13;110838;1251;22003;-80
2022/08/25 00:20:21;;;;;;;25.60;13.80;;;;;;;31.85;100.00;100603.39;110817;1250;22040;-80
2022/08/25 00:23:09;;;;;;;28.00;14.90;;;;;;;31.91;100.00;100604.86;110937;1250;22047;-80
2022/08/25 00:25:52;;;;;;;24.70;14.00;;;;;;;31.91;100.00;100609.80;110226;1254;21974;-80
2022/08/25 00:28:39;;;;;;;28.00;14.30;;;;;;;31.89;100.00;100609.61;110401;1255;24029;-80
2022/08/25 00:31:56;;;;;;;21.50;13.80;;;;;;;32.70;94.30;100607.83;110499;1255;23618;-80
2022/08/25 00:34:42;;;;;;;24.90;13.50;;;;;;;32.94;91.75;100612.88;110203;1257;21988;-81
2022/08/25 00:37:22;;;;;;;20.40;12.20;;;;;;;32.93;90.50;100610.61;110334;1254;21976;-81
2022/08/25 00:40:05;;;;;;;24.80;12.90;;;;;;;32.44;92.98;100611.05;109815;1261;23018;-80
2022/08/25 00:42:45;;;;;;;23.90;12.40;;;;;;;32.08;96.61;100615.85;109497;1261;24152;-81
2022/08/25 00:45:23;;;;;;;21.50;11.90;;;;;;;31.79;97.85;100618.75;109807;1260;22605;-81
2022/08/25 00:48:00;;;;;;;23.70;13.10;;;;;;;31.74;98.49;100616.77;109737;1260;22108;-81
2022/08/25 00:50:41;;;;;;;19.00;13.40;;;;;;;31.76;97.98;100613.52;109737;1255;23823;-80
2022/08/25 00:53:35;;;;;;;23.70;13.20;;;;;;;31.69;98.82;100617.69;110581;1254;23034;-81
2022/08/25 00:56:14;;;;;;;16.00;13.20;;;;;;;31.68;98.83;100618.70;110533;1255;22027;-81
2022/08/25 00:58:53;;;;;;;21.10;13.50;;;;;;;31.71;98.60;100618.48;110784;1250;22023;-81
2022/08/25 01:01:40;;;;;;;22.40;13.70;;;;;;;31.57;99.52;100617.86;110737;1250;21963;-80
2022/08/25 01:04:28;;;;;;;25.10;14.50;;;;;;;31.54;99.89;100617.71;111080;1250;21958;-80
2022/08/25 01:07:22;;;;;;;22.90;14.40;;;;;;;31.58;99.85;100619.49;110919;1250;23686;-80
2022/08/25 01:10:08;;;;;;;24.60;14.90;;;;;;;31.55;99.34;100619.87;110994;1250;23069;-81
2022/08/25 01:12:47;;;;;;;23.10;15.20;;;;;;;31.55;98.88;100623.14;110769;1250;22289;-81
2022/08/25 01:15:29;;;;;;;26.80;14.40;;;;;;;31.63;98.24;100626.48;110855;1250;22047;-80
2022/08/25 01:18:07;;;;;;;19.50;15.20;;;;;;;31.66;97.82;100630.58;110503;1251;22007;-81
2022/08/25 01:20:54;;;;;;;26.60;14.00;;;;;;;31.75;97.42;100633.02;110925;1251;23038;-80
2022/08/25 01:23:36;;;;;;;26.20;15.50;;;;;;;31.86;97.19;100627.85;110829;1251;24325;-82
2022/08/25 01:26:18;;;;;;;23.00;15.00;;;;;;;31.93;96.50;100629.48;110674;1251;21976;-80
2022/08/25 01:29:19;;;;;;;20.60;13.30;;;;;;;31.90;96.27;100632.48;110747;1250;23728;-80
2022/08/25 01:32:10;;;;;;;18.50;13.00;;;;;;;31.94;95.94;100631.10;110929;1250;23195;-81
2022/08/25 01:34:46;;;;;;;22.10;14.00;;;;;;;31.88;95.66;100637.48;110885;1250;23043;-81
2022/08/25 01:37:33;;;;;;;26.20;13.80;;;;;;;31.86;95.73;100639.25;110569;1253;21969;-81
2022/08/25 01:40:29;;;;;;;20.70;14.10;;;;;;;31.75;96.36;100638.50;110309;1254;23013;-80
2022/08/25 01:43:39;;;;;;;18.20;13.60;;;;;;;31.79;96.27;100640.27;110634;1254;21994;-81
2022/08/25 01:46:13;;;;;;;19.50;13.10;;;;;;;31.79;95.83;100636.39;109803;1260;21972;-80
2022/08/25 01:49:01;;;;;;;19.40;13.00;;;;;;;31.71;96.55;100637.20;109980;1260;21971;-80
2022/08/25 01:52:18;;;;;;;25.10;12.60;;;;;;;31.65;97.01;100634.36;109987;1260;21989;-81
2022/08/25 01:54:59;;;;;;;20.10;11.20;;;;;;;31.72;95.84;100629.85;109857;1260;23068;-81
2022/08/25 01:57:47;;;;;;;19.00;11.10;;;;;;;31.71;96.76;100630.16;109876;1257;22132;-81
2022/08/25 02:00:28;;;;;;;19.70;11.20;;;;;;;31.76;96.15;100629.30;110113;1256;23539;-82
2022/08/25 02:03:23;;;;;;;28.80;15.10;;;;;;;31.82;95.93;100630.05;110214;1256;21974;-80
2022/08/25 02:06:06;;;;;;;17.90;11.70;;;;;;;31.83;95.87;100630.95;110187;1257;21982;-82
2022/08/25 02:08:57;;;;;;;20.10;11.60;;;;;;;31.56;96.70;100627.70;110212;1257;23066;-80
2022/08/25 02:11:43;;;;;;;20.60;12.10;;;;;;;31.65;96.74;100628.09;110110;1256;21976;-81
2022/08/25 02:14:35;;;;;;;18.00;10.60;;;;;;;31.82;95.82;100629.00;110259;1256;23049;-81
2022/08/25 02:17:14;;;;;;;16.80;10.10;;;;;;;31.55;97.78;100622.86;110401;1256;24000;-80
2022/08/25 02:19:47;;;;;;;19.50;10.50;;;;;;;31.53;98.27;100623.18;110508;1256;22246;-80
2022/08/25 02:22:26;;;;;;;16.80;9.40;;;;;;;31.68;97.09;100623.66;110585;1254;23604;-80
2022/08/25 02:25:06;;;;;;;13.30;9.90;;;;;;;31.77;96.90;100626.60;110817;1249;22921;-80
2022/08/25 02:27:36;;;;;;;14.90;10.10;;;;;;;31.69;97.12;100633.96;110589;1251;23071;-81
2022/08/25 02:30:38;;;;;;;18.30;11.70;;;;;;;31.57;97.76;100637.24;109929;1256;21977;-81
2022/08/25 02:33:26;;;;;;;17.00;11.90;;;;;;;31.55;98.01;100632.05;110060;1259;21993;-81
2022/08/25 02:36:14;;;;;;;20.70;12.40;;;;;;;31.58;97.98;100628.49;110011;1259;21999;-81
2022/08/25 02:39:06;;;;;;;15.70;10.50;;;;;;;31.72;96.57;100630.85;110144;1259;22350;-80
2022/08/25 02:41:49;;;;;;;15.40;11.30;;;;;;;31.73;96.26;100632.36;110058;1260;22023;-80
2022/08/25 02:44:26;;;;;;;17.20;11.40;;;;;;;31.58;97.13;100627.84;109639;1262;21984;-81
2022/08/25 02:47:08;;;;;;;15.80;9.40;;;;;;;31.46;98.38;100621.30;109417;1263;21978;-81
2022/08/25 02:49:59;;;;;;;18.70;11.20;;;;;;;31.42;99.18;100618.96;109892;1260;23658;-80
2022/08/25 02:52:49;;;;;;;19.50;14.40;;;;;;;31.53;98.30;100622.67;110389;1256;23679;-81
2022/08/25 02:55:35;;;;;;;16.50;10.80;;;;;;;31.76;95.98;100625.30;110490;1256;21993;-80
2022/08/25 02:58:25;;;;;;;20.50;14.20;;;;;;;31.74;95.95;100622.45;109947;1259;21973;-80
2022/08/25 03:01:06;;;;;;;19.40;11.20;;;;;;;31.65;96.39;100625.58;110096;1260;21970;-80
2022/08/25 03:03:51;;;;;;;19.10;11.20;;;;;;;31.52;97.25;100622.65;110289;1256;23020;-81
2022/08/25 03:06:29;;;;;;;22.90;12.10;;;;;;;31.56;96.93;100624.21;110413;1256;24442;-81
2022/08/25 03:09:18;;;;;;;15.20;10.70;;;;;;;31.59;96.56;100623.69;110367;1255;22272;-81
2022/08/25 03:12:00;;;;;;;24.30;15.20;;;;;;;31.42;97.81;100623.73;110245;1255;22640;-79
2022/08/25 03:14:40;;;;;;;18.80;12.70;;;;;;;31.30;99.28;100624.02;110211;1255;23036;-80
2022/08/25 03:17:24;;;;;;;22.10;14.10;;;;;;;31.28;99.70;100631.52;110406;1253;23845;-79
2022/08/25 03:20:05;;;;;;;20.10;12.30;;;;;;;31.34;99.53;100634.59;110803;1253;21967;-79
2022/08/25 03:22:46;;;;;;;20.00;12.70;;;;;;;31.33;99.71;100630.84;110708;1252;21978;-79
2022/08/25 03:28:22;;;;;;;13.80;10.10;;;;;;;31.21;99.99;100635.02;110435;1252;22043;-79
2022/08/25 03:31:03;;;;;;;14.00;9.70;;;;;;;31.15;99.97;100634.36;110297;1257;22218;-79
2022/08/25 03:33:40;;;;;;;12.40;8.60;;;;;;;31.16;99.97;100633.95;110027;1257;22971;-79
2022/08/25 03:36:15;;;;;;;23.30;9.70;;;;;;;31.18;99.95;100640.70;110002;1257;22039;-79
2022/08/25 03:38:48;;;;;;;12.60;7.80;;;;;;;31.19;99.77;100646.84;110143;1255;23595;-79
2022/08/25 03:41:33;;;;;;;15.50;8.80;;;;;;;31.18;99.78;100649.97;110338;1259;22066;-79
2022/08/25 03:44:10;;;;;;;12.00;8.40;;;;;;;31.28;98.59;100653.46;109971;1260;22285;-78
2022/08/25 03:46:49;;;;;;;20.40;8.50;;;;;;;31.22;98.24;100645.09;109152;1263;23710;-80
2022/08/25 03:49:24;;;;;;;14.00;8.00;;;;;;;31.18;98.20;100642.77;109698;1258;21995;-80
2022/08/25 03:52:00;;;;;;;12.80;7.70;;;;;;;30.99;99.40;100644.45;109971;1257;21957;-79
2022/08/25 03:54:32;;;;;;;16.90;7.90;;;;;;;30.99;99.73;100644.48;109817;1258;21983;-79
2022/08/25 03:57:09;;;;;;;13.40;6.80;;;;;;;30.88;99.94;100648.33;110257;1257;22763;-79
2022/08/25 03:59:44;;;;;;;13.50;6.60;;;;;;;30.66;100.00;100644.15;110068;1258;22739;-80
2022/08/25 04:02:30;;;;;;;16.20;7.30;;;;;;;30.74;100.00;100643.60;109925;1257;22080;-81
2022/08/25 04:05:04;;;;;;;16.00;6.60;;;;;;;30.81;100.00;100643.61;109884;1256;21984;-79
2022/08/25 04:07:44;;;;;;;13.60;6.70;;;;;;;30.93;100.00;100644.48;110168;1255;21965;-79
2022/08/25 04:10:24;;;;;;;15.40;7.80;;;;;;;30.90;100.00;100644.80;109962;1255;23714;-80
2022/08/25 04:12:55;;;;;;;10.90;6.80;;;;;;;30.87;100.00;100647.73;109890;1257;23620;-78
2022/08/25 04:15:28;;;;;;;11.80;7.00;;;;;;;30.98;100.00;100647.35;109713;1260;23756;-79
2022/08/25 04:17:58;;;;;;;15.00;6.90;;;;;;;31.15;99.99;100646.96;109760;1260;23105;-80
2022/08/25 04:20:27;;;;;;;14.80;7.10;;;;;;;31.07;100.00;100646.66;110312;1259;23580;-80
2022/08/25 04:23:00;;;;;;;11.80;7.00;;;;;;;31.11;99.69;100646.52;110020;1258;23596;-81
2022/08/25 04:25:41;;;;;;;19.40;8.00;;;;;;;31.37;98.58;100643.27;110222;1257;22052;-81
2022/08/25 04:28:36;;;;;;;14.40;7.50;;;;;;;31.20;99.60;100647.91;110228;1257;21970;-80
2022/08/25 04:31:23;;;;;;;13.20;6.00;;;;;;;31.16;99.99;100643.52;110036;1258;22995;-78
2022/08/25 04:34:32;;;;;;;20.80;6.40;;;;;;;31.15;100.00;100638.56;110454;1253;22464;-81
2022/08/25 04:37:24;;;;;;;12.60;5.70;;;;;;;31.03;100.00;100639.26;110868;1247;21964;-78
2022/08/25 04:40:19;;;;;;;13.80;6.80;;;;;;;30.94;100.00;100638.67;111035;1247;21961;-81
2022/08/25 04:43:00;;;;;;;12.80;6.80;;;;;;;30.93;100.00;100635.69;111048;1248;22186;-79
2022/08/25 04:45:49;;;;;;;12.60;5.90;;;;;;;30.95;100.00;100633.98;110855;1247;22371;-79
2022/08/25 04:48:30;;;;;;;12.40;6.20;;;;;;;31.02;100.00;100634.45;110944;1247;24227;-79
2022/08/25 04:51:30;;;;;;;18.40;6.80;;;;;;;31.06;100.00;100632.81;110887;1247;21997;-78
2022/08/25 04:54:11;;;;;;;14.80;7.40;;;;;;;31.10;100.00;100632.58;110930;1247;21953;-78
2022/08/25 04:56:49;;;;;;;25.80;8.20;;;;;;;31.13;100.00;100626.41;110940;1247;21956;-79
2022/08/25 04:59:30;;;;;;;16.60;6.60;;;;;;;31.04;100.00;100628.48;110798;1249;21964;-78
2022/08/25 05:02:16;;;;;;;12.80;6.70;;;;;;;31.02;100.00;100623.73;110959;1247;23034;-78
2022/08/25 05:04:45;;;;;;;16.60;8.40;;;;;;;31.15;100.00;100621.70;110908;1248;22638;-78
2022/08/25 05:07:15;;;;;;;21.70;8.50;;;;;;;31.31;100.00;100625.80;110722;1250;21952;-79
2022/08/25 05:09:46;;;;;;;17.00;7.00;;;;;;;31.33;100.00;100628.55;110714;1250;23058;-79
2022/08/25 05:12:13;;;;;;;20.10;6.70;;;;;;;31.27;100.00;100624.55;110861;1248;23140;-77
2022/08/25 05:14:53;;;;;;;15.10;7.10;;;;;;;31.31;100.00;100624.75;110984;1249;21974;-84
2022/08/25 05:17:26;;;;;;;12.30;6.40;;;;;;;31.46;100.00;100624.35;110758;1250;22554;-80
2022/08/25 05:20:00;;;;;;;;;;;;;;;31.52;100.00;100621.24;110948;1247;22083;-79
2022/08/25 05:22:30;;;;;;;16.10;7.40;;;;;;;31.82;100.00;100623.45;110781;1250;21939;-79
2022/08/25 05:24:58;;;;;;;20.50;7.80;;;;;;;31.93;100.00;100623.86;110730;1250;23356;-78
2022/08/25 05:27:26;;;;;;;12.50;6.40;;;;;;;31.98;100.00;100623.91;110844;1250;21980;-79
2022/08/25 05:29:54;;;;;;;14.40;7.60;;;;;;;31.98;100.00;100618.56;110271;1256;22478;-79
2022/08/25 05:32:25;;;;;;;13.30;6.80;;;;;;;32.21;98.92;100618.55;110445;1254;22190;-79
2022/08/25 05:34:57;;;;;;;16.10;6.90;;;;;;;32.31;97.14;100622.01;110460;1254;23580;-80
2022/08/25 05:37:34;;;;;;;15.00;7.20;;;;;;;32.18;98.56;100621.71;110446;1254;23781;-79
2022/08/25 05:40:07;;;;;;;13.70;8.10;;;;;;;32.13;99.75;100618.19;110302;1254;21971;-79
2022/08/25 05:42:36;;;;;;;21.70;10.80;;;;;;;32.11;99.97;100614.73;110633;1254;23601;-80
2022/08/25 05:45:08;;;;;;;18.80;10.30;;;;;;;32.16;100.00;100615.49;110465;1254;23067;-78
2022/08/25 05:47:42;;;;;;;21.00;10.50;;;;;;;32.24;99.98;100614.95;110325;1250;23090;-78
2022/08/25 05:50:16;;;;;;;17.70;11.30;;;;;;;32.25;99.98;100616.06;110895;1250;21967;-79
2022/08/25 05:52:47;;;;;;;19.80;10.00;;;;;;;32.26;100.00;100615.16;110702;1249;23574;-78
2022/08/25 05:55:19;;;;;;;16.10;7.80;;;;;;;32.24;100.00;100614.40;110964;1249;22019;-78
2022/08/25 05:57:49;;;;;;;22.60;8.80;;;;;;;32.29;100.00;100613.59;110828;1250;22012;-78
2022/08/25 06:00:18;;;;;;;16.70;7.90;;;;;;;32.36;99.90;100611.73;110706;1249;22327;-79
2022/08/25 06:02:49;;;;;;;15.10;8.10;;;;;;;32.38;99.90;100613.39;110869;1250;21936;-84
2022/08/25 06:05:31;;;;;;;14.00;8.40;;;;;;;32.35;100.00;100613.45;111063;1248;21959;-81
2022/08/25 06:08:03;;;;;;;14.40;8.80;;;;;;;32.51;99.54;100614.81;110974;1249;23677;-79
2022/08/25 06:10:32;;;;;;;14.20;7.80;;;;;;;32.54;99.13;100616.84;110793;1250;23837;-79
2022/08/25 06:13:01;;;;;;;15.70;7.60;;;;;;;32.53;99.28;100618.73;110732;1249;23606;-81
2022/08/25 06:15:32;;;;;;;17.30;7.70;;;;;;;32.64;99.24;100620.84;110943;1250;22018;-79
2022/08/25 06:18:07;;;;;;;18.20;7.90;;;;;;;32.80;99.35;100620.44;110650;1249;21965;-80
2022/08/25 06:20:36;;;;;;;14.30;7.40;;;;;;;33.02;99.87;100618.77;110791;1249;23609;-79
2022/08/25 06:23:03;;;;;;;13.70;7.10;;;;;;;33.30;100.00;100623.05;110882;1247;23020;-80
2022/08/25 06:25:38;;;;;;;13.50;6.10;;;;;;;33.74;100.00;100625.77;110873;1250;21962;-78
2022/08/25 06:28:14;;;;;;;12.90;6.50;;;;;;;34.33;100.00;100630.73;110775;1247;23940;-78
2022/08/25 06:30:46;;;;;;;12.30;5.70;;;;;;;35.04;97.73;100627.27;110761;1249;23685;-79
2022/08/25 06:33:21;;;;;;;14.10;5.90;;;;;;;35.41;94.74;100625.04;110884;1247;23570;-78
2022/08/25 06:35:56;;;;;;;11.90;5.60;;;;;;;35.67;90.91;100628.73;110391;1255;21968;-79
2022/08/25 06:38:31;;;;;;;9.00;5.30;;;;;;;36.10;84.14;100633.28;110073;1255;21982;-79
2022/08/25 06:41:11;;;;;;;13.60;6.30;;;;;;;36.45;80.28;100638.50;110084;1259;22046;-80
2022/08/25 06:43:45;;;;;;;15.10;7.00;;;;;;;36.66;76.98;100634.02;109408;1262;22082;-80
2022/08/25 06:46:28;;;;;;;12.50;5.90;;;;;;;36.51;78.01;100630.88;109524;1261;22001;-80
2022/08/25 06:49:09;;;;;;;13.80;5.50;;;;;;;36.66;77.32;100628.12;109795;1262;22782;-83
2022/08/25 06:51:37;;;;;;;16.50;6.30;;;;;;;36.74;74.61;100625.91;109146;1267;21994;-81
2022/08/25 06:54:13;;;;;;;14.20;6.40;;;;;;;36.88;73.59;100623.42;109344;1262;22887;-78
2022/08/25 06:56:53;;;;;;;13.60;6.50;;;;;;;36.98;72.82;100628.98;109554;1262;21975;-87
2022/08/25 06:59:24;;;;;;;16.30;6.50;;;;;;;37.05;71.87;100628.29;109671;1260;22761;-81
2022/08/25 07:02:01;;;;;;;14.00;5.30;;;;;;;37.34;71.91;100632.91;109852;1260;21989;-79
2022/08/25 07:04:33;;;;;;;18.50;5.60;;;;;;;37.54;71.85;100633.84;109963;1259;24387;-79
2022/08/25 07:07:06;;;;;;;18.00;5.40;;;;;;;38.00;69.15;100634.71;109949;1261;23691;-79
2022/08/25 07:09:34;;;;;;;14.80;5.10;;;;;;;38.06;67.08;100637.27;110392;1249;21967;-83
2022/08/25 07:12:07;;;;;;;16.30;5.50;;;;;;;37.72;66.16;100635.21;110771;1250;21967;-78
2022/08/25 07:14:35;;;;;;;14.70;5.40;;;;;;;37.57;68.05;100641.56;110752;1250;21966;-80
2022/08/25 07:17:08;;;;;;;20.40;5.90;;;;;;;37.60;66.67;100642.77;110912;1249;23759;-78
2022/08/25 07:19:41;;;;;;;17.40;5.90;;;;;;;37.84;67.94;100641.13;110773;1250;21970;-80
2022/08/25 07:22:09;;;;;;;19.60;5.30;;;;;;;38.07;68.00;100642.97;110949;1250;22061;-77
2022/08/25 07:24:37;;;;;;;18.00;5.90;;;;;;;38.24;67.14;100643.00;110720;1250;21966;-75
2022/08/25 07:27:05;;;;;;;17.00;5.30;;;;;;;38.36;66.22;100640.92;110849;1249;23028;-75
2022/08/25 07:29:38;;;;;;;17.70;6.10;;;;;;;38.32;65.22;100642.77;110652;1253;22142;-77
2022/08/25 07:32:12;;;;;;;14.70;5.40;;;;;;;38.47;64.69;100649.00;109917;1260;22014;-77
2022/08/25 07:37:26;;;;;;;12.40;5.40;;;;;;;38.76;61.07;100653.16;109706;1258;22988;-76
2022/08/25 07:40:24;;;;;;;19.50;5.50;;;;;;;38.80;61.39;100650.54;109993;1259;21970;-77
2022/08/25 07:42:55;;;;;;;18.80;4.90;;;;;;;38.77;61.46;100650.27;110262;1258;22194;-77
2022/08/25 07:45:31;;;;;;;16.00;4.70;;;;;;;38.64;60.28;100648.72;110346;1257;22711;-81
2022/08/25 07:48:11;;;;;;;17.70;5.80;;;;;;;38.54;60.83;100648.83;110460;1254;21975;-82
2022/08/25 07:50:44;;;;;;;17.10;5.90;;;;;;;38.65;60.85;100648.57;110783;1250;22973;-82
2022/08/25 07:53:35;;;;;;;12.00;5.50;;;;;;;38.57;60.92;100645.35;110600;1254;21976;-80
2022/08/25 07:56:13;;;;;;;11.70;5.50;;;;;;;38.33;61.77;100643.22;110564;1255;21977;-80
2022/08/25 07:58:46;;;;;;;19.00;6.10;;;;;;;38.30;61.41;100643.89;110785;1254;22124;-80
2022/08/25 08:01:25;;;;;;;16.80;6.10;;;;;;;38.39;60.55;100647.19;110717;1253;21959;-80
2022/08/25 08:03:55;;;;;;;14.60;5.20;;;;;;;38.33;60.00;100641.79;110393;1256;21974;-80
2022/08/25 08:06:26;;;;;;;14.40;4.90;;;;;;;38.37;59.43;100642.79;110525;1253;23597;-79
2022/08/25 08:09:01;;;;;;;14.10;5.40;;;;;;;38.14;59.26;100644.14;110477;1256;23573;-80
2022/08/25 08:11:39;;;;;;;17.90;5.30;;;;;;;37.96;59.41;100644.52;110770;1250;22055;-82
2022/08/25 08:14:17;;;;;;;12.00;4.70;;;;;;;38.03;59.59;100642.36;110980;1249;21969;-82
2022/08/25 08:16:48;;;;;;;15.30;4.50;;;;;;;37.85;60.57;100637.54;110848;1250;23010;-81
2022/08/25 08:19:21;;;;;;;20.00;6.10;;;;;;;37.76;60.53;100640.09;110872;1249;22062;-81
2022/08/25 08:21:53;;;;;;;14.70;5.00;;;;;;;37.69;60.57;100637.00;110207;1255;21983;-80
2022/08/25 08:24:24;;;;;;;22.60;5.80;;;;;;;37.66;61.02;100632.41;110515;1256;22044;-79
2022/08/25 08:27:12;;;;;;;16.20;5.90;;;;;;;37.69;61.59;100637.23;110307;1255;21969;-79
2022/08/25 08:29:44;;;;;;;16.50;6.10;;;;;;;37.64;62.60;100639.20;110013;1255;21991;-79
2022/08/25 08:32:16;;;;;;;16.40;6.50;;;;;;;37.72;63.05;100640.88;110430;1256;21995;-82
2022/08/25 08:34:50;;;;;;;18.10;5.70;;;;;;;37.93;62.43;100637.64;110458;1255;23680;-81
2022/08/25 08:37:21;;;;;;;25.40;7.00;;;;;;;37.91;63.05;100636.63;110448;1255;22292;-81
2022/08/25 08:39:55;;;;;;;18.40;5.50;;;;;;;37.98;65.21;100634.96;110843;1247;24317;-80
2022/08/25 08:43:02;;;;;;;14.60;5.80;;;;;;;38.30;67.46;100636.03;110583;1254;23704;-80
2022/08/25 08:45:49;;;;;;;;;;;;;;;38.66;67.28;100638.65;110481;1255;23039;-79
2022/08/25 08:49:03;;;;;;;18.80;4.50;;;;;;;39.15;63.94;100637.18;110137;1258;21945;-79
2022/08/25 08:51:52;;;;;;;13.70;4.50;;;;;;;39.12;59.38;100628.67;110138;1258;23130;-79
2022/08/25 08:54:25;;;;;;;21.40;5.80;;;;;;;39.13;58.18;100623.17;110003;1258;22093;-79
2022/08/25 08:57:21;;;;;;;21.80;5.50;;;;;;;39.03;57.62;100625.67;110216;1261;21992;-82
2022/08/25 09:00:05;;;;;;;20.60;4.90;;;;;;;38.94;57.65;100631.11;110018;1257;21937;-80
2022/08/25 09:02:44;;;;;;;17.80;5.10;;;;;;;38.83;57.64;100626.85;110327;1255;22745;-80
2022/08/25 09:05:23;;;;;;;20.50;6.50;;;;;;;38.73;57.85;100627.75;110647;1254;23044;-80
2022/08/25 09:07:59;;;;;;;18.00;5.60;;;;;;;38.57;58.12;100626.23;110747;1250;21973;-81
2022/08/25 09:10:46;;;;;;;21.70;6.30;;;;;;;38.31;59.24;100624.02;110575;1253;21968;-80
2022/08/25 09:13:37;;;;;;;26.50;6.40;;;;;;;38.57;59.12;100625.39;110095;1260;22474;-81
2022/08/25 09:16:54;;;;;;;22.00;5.70;;;;;;;38.59;59.12;100627.17;109875;1261;21972;-80
2022/08/25 09:19:48;;;;;;;17.50;5.60;;;;;;;38.49;59.07;100621.46;108922;1268;23053;-80
2022/08/25 09:22:29;;;;;;;18.20;5.50;;;;;;;38.34;60.84;100616.27;109110;1268;21990;-80
2022/08/25 09:25:19;;;;;;;17.90;5.60;;;;;;;38.37;61.29;100617.23;109063;1268;24314;-80
2022/08/25 09:28:34;;;;;;;20.10;6.70;;;;;;;38.19;61.82;100615.65;109111;1264;22909;-81
2022/08/25 09:31:21;;;;;;;30.10;5.50;;;;;;;37.82;63.55;100618.05;109671;1258;22088;-80
2022/08/25 09:34:00;;;;;;;22.20;7.20;;;;;;;37.77;64.15;100616.31;110420;1257;23850;-80
2022/08/25 09:36:32;;;;;;;20.60;5.80;;;;;;;37.67;65.76;100617.12;109445;1264;22096;-81
2022/08/25 09:39:06;;;;;;;15.10;5.20;;;;;;;37.63;66.12;100613.52;110307;1257;23811;-81
2022/08/25 09:41:55;;;;;;;19.00;7.20;;;;;;;37.97;64.11;100607.46;110510;1256;22069;-80
2022/08/25 09:44:32;;;;;;;21.40;6.70;;;;;;;38.11;62.86;100608.17;110514;1253;21970;-80
2022/08/25 09:47:29;;;;;;;22.00;6.20;;;;;;;38.09;63.56;100604.81;109899;1259;21974;-80
2022/08/25 09:50:01;;;;;;;18.00;5.70;;;;;;;38.21;63.59;100601.05;109388;1267;21975;-82
2022/08/25 09:52:40;;;;;;;16.50;5.20;;;;;;;38.25;64.44;100595.89;109158;1267;21983;-80
2022/08/25 09:55:13;;;;;;;21.20;9.60;;;;;;;38.57;65.63;100600.09;109386;1264;21983;-80
2022/08/25 09:57:42;;;;;;;19.30;5.70;;;;;;;39.19;64.28;100599.48;109768;1263;23613;-80
2022/08/25 10:00:17;;;;;;;19.60;7.50;;;;;;;39.91;62.06;100593.19;108973;1272;22791;-80
2022/08/25 10:03:07;;;;;;;18.30;5.70;;;;;;;40.10;59.14;100588.75;108617;1276;22281;-80
2022/08/25 10:06:07;;;;;;;22.00;5.20;;;;;;;39.89;58.36;100587.48;108801;1273;22804;-81
2022/08/25 10:08:56;;;;;;;25.40;6.80;;;;;;;40.05;58.07;100584.44;109054;1270;22036;-80
2022/08/25 10:11:44;;;;;;;19.70;6.30;;;;;;;39.97;57.30;100582.11;107692;1267;22200;-80
2022/08/25 10:14:26;;;;;;;18.70;6.20;;;;;;;40.12;57.18;100575.42;109083;1266;22108;-81
2022/08/25 10:17:26;;;;;;;26.90;5.80;;;;;;;40.19;56.33;100570.20;109359;1267;23607;-80
2022/08/25 10:20:28;;;;;;;22.40;5.30;;;;;;;40.26;56.90;100565.05;110039;1260;22396;-81
2022/08/25 10:23:26;;;;;;;23.50;6.30;;;;;;;40.89;55.48;100562.33;109160;1268;22407;-79
2022/08/25 10:25:57;;;;;;;19.00;5.90;;;;;;;40.80;54.81;100556.39;108483;1273;22469;-81
2022/08/25 10:28:48;;;;;;;19.60;5.80;;;;;;;40.78;54.27;100555.94;109189;1267;23788;-82
2022/08/25 10:31:24;;;;;;;25.60;5.90;;;;;;;40.77;53.56;100554.77;108977;1271;22554;-81
2022/08/25 10:34:39;;;;;;;20.80;6.30;;;;;;;40.96;53.87;100552.88;109030;1268;23051;-80
2022/08/25 10:37:37;;;;;;;19.90;5.60;;;;;;;41.29;53.68;100551.15;108522;1280;22999;-81
2022/08/25 10:40:28;;;;;;;24.00;6.60;;;;;;;41.38;52.59;100545.27;107932;1282;22036;-79
2022/08/25 10:43:27;;;;;;;24.10;6.60;;;;;;;41.32;51.69;100542.48;107785;1285;22050;-81
2022/08/25 10:46:55;;;;;;;19.30;6.80;;;;;;;41.12;52.85;100539.01;107893;1286;23800;-80
2022/08/25 10:49:46;;;;;;;30.40;6.10;;;;;;;41.20;52.65;100535.00;107092;1293;22025;-81
2022/08/25 10:52:37;;;;;;;21.40;6.20;;;;;;;41.13;51.94;100532.06;106776;1291;23662;-79
2022/08/25 10:55:42;;;;;;;25.80;7.30;;;;;;;40.96;51.25;100527.80;107580;1282;23847;-80
2022/08/25 10:58:53;;;;;;;24.60;6.00;;;;;;;40.87;49.95;100519.73;108278;1276;23631;-80
2022/08/25 11:01:46;;;;;;;18.10;5.10;;;;;;;40.79;50.22;100515.23;108365;1278;23059;-80
2022/08/25 11:04:43;;;;;;;33.00;6.50;;;;;;;40.69;50.43;100509.91;108771;1270;23016;-82
2022/08/25 11:07:36;;;;;;;23.60;5.30;;;;;;;40.65;51.02;100508.65;108867;1273;22092;-80
2022/08/25 11:10:35;;;;;;;30.40;7.90;;;;;;;40.60;50.98;100508.80;108518;1279;23021;-81
2022/08/25 11:13:14;;;;;;;24.50;6.50;;;;;;;40.43;50.91;100507.58;108493;1271;21993;-80
2022/08/25 11:16:16;;;;;;;23.20;7.00;;;;;;;40.37;51.47;100508.88;108780;1271;22078;-80
2022/08/25 11:19:01;;;;;;;27.80;6.60;;;;;;;40.39;51.11;100507.09;109047;1265;22032;-79
2022/08/25 11:21:55;;;;;;;26.20;6.50;;;;;;;40.33;51.88;100506.83;109595;1263;21984;-81
2022/08/25 11:25:13;;;;;;;25.40;6.10;;;;;;;40.42;51.46;100496.72;109473;1262;21987;-80
2022/08/25 11:28:10;;;;;;;27.10;6.20;;;;;;;40.56;50.72;100495.52;110231;1250;21958;-79
2022/08/25 11:30:39;;;;;;;24.40;6.20;;;;;;;40.40;50.27;100494.16;110924;1251;22280;-80
2022/08/25 11:33:18;;;;;;;24.00;6.00;;;;;;;40.12;51.08;100493.52;110931;1249;23050;-80
2022/08/25 11:35:54;;;;;;;28.10;7.10;;;;;;;40.05;52.16;100488.46;110901;1250;23820;-81
2022/08/25 11:39:14;;;;;;;26.80;7.20;;;;;;;40.07;52.58;100483.68;110891;1248;21956;-81
2022/08/25 11:42:15;;;;;;;30.10;7.70;;;;;;;40.07;52.31;100482.34;111068;1250;21980;-81
2022/08/25 11:45:49;;;;;;;23.00;5.30;;;;;;;40.12;52.95;100478.26;110736;1255;24304;-81
2022/08/25 11:48:40;;;;;;;23.30;6.40;;;;;;;40.22;52.91;100475.09;110194;1260;21967;-82
2022/08/25 11:51:27;;;;;;;23.90;6.00;;;;;;;40.04;53.44;100473.04;109508;1268;22091;-83
2022/08/25 11:54:35;;;;;;;24.40;7.40;;;;;;;40.00;53.70;100468.20;109126;1267;22068;-83
2022/08/25 11:57:15;;;;;;;24.60;6.20;;;;;;;40.10;53.80;100468.73;109056;1273;23658;-83
2022/08/25 12:00:41;;;;;;;21.70;6.10;;;;;;;40.20;53.49;100461.13;109106;1273;23390;-81
2022/08/25 12:04:34;;;;;;;26.70;6.50;;;;;;;40.42;52.93;100455.44;108898;1273;22363;-82
2022/08/25 12:07:38;;;;;;;25.60;6.70;;;;;;;40.43;51.80;100461.09;108714;1286;22022;-87
2022/08/25 12:10:19;;;;;;;26.50;7.00;;;;;;;40.43;51.85;100461.70;108666;1288;22047;-85
2022/08/25 12:17:00;;;;;;;25.00;7.00;;;;;;;40.47;51.66;100453.01;111342;1260;21971;-89
2022/08/25 12:20:01;;;;;;;25.40;8.20;;;;;;;40.29;51.84;100452.34;110585;1259;23667;-85
2022/08/25 12:22:31;;;;;;;31.70;5.90;;;;;;;40.11;51.80;100455.23;109583;1265;22018;-86
2022/08/25 12:25:25;;;;;;;26.70;6.80;;;;;;;40.04;51.73;100449.27;109618;1267;22007;-84
2022/08/25 12:28:31;;;;;;;29.10;6.30;;;;;;;40.04;52.31;100447.74;109301;1268;22928;-86